createdAt,value
2019-05-22T00:02:30.603Z,101968.33
2019-05-22T00:07:32.295Z,101974.75
2019-05-22T00:12:46.085Z,101978.58
2019-05-22T00:17:37.858Z,101972.00
2019-05-22T00:22:39.358Z,101979.96
2019-05-22T00:27:41.365Z,101982.79
2019-05-22T00:32:43.659Z,101979.50
2019-05-22T00:37:45.182Z,101985.61
2019-05-22T00:43:01.173Z,101983.39
2019-05-22T00:47:50.794Z,101988.56
2019-05-22T00:52:52.894Z,101989.72
2019-05-22T00:57:54.786Z,101989.41
2019-05-22T01:02:56.795Z,101991.78
2019-05-22T01:07:58.314Z,102001.84
2019-05-22T01:12:59.870Z,102001.09
2019-05-22T01:18:02.325Z,102009.74
2019-05-22T01:23:04.112Z,101998.30
2019-05-22T01:28:06.020Z,102003.88
2019-05-22T01:33:08.229Z,102009.74
2019-05-22T01:38:10.006Z,102005.39
2019-05-22T01:43:11.876Z,102010.38
2019-05-22T01:48:15.682Z,102008.27
2019-05-22T01:53:17.218Z,102010.93
2019-05-22T01:58:19.343Z,102016.44
2019-05-22T02:03:21.104Z,102017.91
2019-05-22T02:08:22.576Z,102010.65
2019-05-22T02:13:31.514Z,102014.19
2019-05-22T02:18:33.663Z,102010.24
2019-05-22T02:23:35.115Z,102015.91
2019-05-22T02:28:36.599Z,102017.23
2019-05-22T02:33:37.952Z,102018.98
2019-05-22T02:38:39.565Z,102019.86
2019-05-22T02:43:41.088Z,102017.23
2019-05-22T02:48:42.706Z,102018.39
2019-05-22T02:53:44.255Z,102019.30
2019-05-22T02:58:45.704Z,102013.81
2019-05-22T03:03:47.190Z,102015.78
2019-05-22T03:09:03.680Z,102013.75
2019-05-22T03:14:05.225Z,102016.28
2019-05-22T03:19:09.229Z,102020.23
2019-05-22T03:24:10.824Z,102028.62
2019-05-22T03:29:12.373Z,102028.94
2019-05-22T03:34:13.879Z,102032.06
2019-05-22T03:39:16.142Z,102029.59
2019-05-22T03:44:17.652Z,102033.20
2019-05-22T03:49:29.903Z,102046.86
2019-05-22T03:54:22.593Z,102050.56
2019-05-22T03:59:24.398Z,102049.48
2019-05-22T04:04:34.323Z,102044.58
2019-05-22T04:09:36.116Z,102037.16
2019-05-22T04:14:38.147Z,102038.56
2019-05-22T04:19:49.316Z,102044.45
2019-05-22T04:24:43.070Z,102042.75
2019-05-22T04:29:45.842Z,102037.66
2019-05-22T04:34:47.390Z,102048.18
2019-05-22T04:39:48.883Z,102042.53
2019-05-22T04:45:06.930Z,102054.05
2019-05-22T04:50:09.395Z,102058.97
2019-05-22T04:55:11.720Z,102060.09
2019-05-22T05:00:13.272Z,102052.48
2019-05-22T05:05:16.009Z,102058.86
2019-05-22T05:10:17.889Z,102064.47
2019-05-22T05:15:20.462Z,102063.05
2019-05-22T05:20:22.969Z,102063.61
2019-05-22T05:25:24.618Z,102066.91
2019-05-22T05:30:26.168Z,102072.48
2019-05-22T05:35:28.015Z,102067.91
2019-05-22T05:40:30.419Z,102075.00
2019-05-22T05:45:31.947Z,102079.75
2019-05-22T05:50:39.700Z,102081.37
2019-05-22T05:55:58.921Z,102084.75
2019-05-22T06:01:07.153Z,102079.61
2019-05-22T06:06:44.883Z,102079.78
2019-05-22T06:11:46.746Z,102075.05
2019-05-22T06:17:30.518Z,102078.84
2019-05-22T06:22:32.016Z,102083.58
2019-05-22T06:27:34.169Z,102088.53
2019-05-22T06:33:15.162Z,102093.51
2019-05-22T06:38:46.099Z,102089.09
2019-05-22T06:44:36.308Z,102086.55
2019-05-22T06:49:41.797Z,102093.66
2019-05-22T06:54:43.739Z,102095.39
2019-05-22T06:59:46.446Z,102101.02
2019-05-22T07:04:48.577Z,102104.30
2019-05-22T07:09:50.078Z,102105.09
2019-05-22T07:15:20.879Z,102112.82
2019-05-22T07:20:23.047Z,102114.59
2019-05-22T07:25:24.491Z,102118.72
2019-05-22T07:30:26.327Z,102115.03
2019-05-22T07:35:44.139Z,102108.14
2019-05-22T07:40:31.934Z,102102.64
2019-05-22T07:45:33.784Z,102104.63
2019-05-22T07:50:35.282Z,102103.63
2019-05-22T07:55:36.834Z,102104.55
2019-05-22T08:00:40.879Z,102102.44
2019-05-22T08:05:44.263Z,102103.36
2019-05-22T08:10:45.766Z,102105.56
2019-05-22T08:15:48.181Z,102097.11
2019-05-22T08:20:50.310Z,102097.73
2019-05-22T08:25:52.379Z,102102.83
2019-05-22T08:30:54.021Z,102114.06
2019-05-22T08:35:59.310Z,102113.12
2019-05-22T08:41:01.032Z,102116.86
2019-05-22T08:46:02.942Z,102112.48
2019-05-22T08:51:05.011Z,102113.01
2019-05-22T08:56:06.575Z,102114.61
2019-05-22T09:01:09.067Z,102102.41
2019-05-22T09:06:10.628Z,102105.13
2019-05-22T09:11:12.558Z,102104.81
2019-05-22T09:16:14.278Z,102095.20
2019-05-22T09:21:16.167Z,102098.03
2019-05-22T09:26:17.701Z,102102.13
2019-05-22T09:31:19.572Z,102102.39
2019-05-22T09:41:22.189Z,102106.64
2019-05-22T09:46:24.013Z,102106.52
2019-05-22T09:51:25.687Z,102110.22
2019-05-22T09:56:27.354Z,102109.75
2019-05-22T10:01:28.860Z,102103.88
2019-05-22T10:06:31.022Z,102100.36
2019-05-22T10:11:32.917Z,102104.13
2019-05-22T10:16:34.531Z,102107.44
2019-05-22T10:21:36.474Z,102104.05
2019-05-22T10:26:38.200Z,102106.42
2019-05-22T10:31:39.974Z,102114.05
2019-05-22T10:36:43.255Z,102112.72
2019-05-22T10:41:44.901Z,102111.78
2019-05-22T10:46:46.399Z,102115.18
2019-05-22T10:51:48.352Z,102106.16
2019-05-22T10:56:49.863Z,102097.85
2019-05-22T11:01:51.546Z,102097.31
2019-05-22T11:06:58.071Z,102093.55
2019-05-22T11:11:59.570Z,102085.74
2019-05-22T11:17:01.620Z,102091.58
2019-05-22T11:22:03.234Z,102082.30
2019-05-22T11:27:04.743Z,102084.63
2019-05-22T11:32:06.540Z,102081.02
2019-05-22T11:37:08.007Z,102080.75
2019-05-22T11:42:09.628Z,102075.55
2019-05-22T11:47:11.533Z,102074.84
2019-05-22T11:52:13.325Z,102071.01
2019-05-22T11:57:15.207Z,102082.13
2019-05-22T12:02:16.749Z,102079.69
2019-05-22T12:07:18.235Z,102074.72
2019-05-22T12:12:20.093Z,102079.72
2019-05-22T12:17:36.895Z,102072.28
2019-05-22T12:22:25.123Z,102077.31
2019-05-22T12:27:26.643Z,102061.23
2019-05-22T12:32:28.287Z,102069.31
2019-05-22T12:37:30.356Z,102068.82
2019-05-22T12:42:31.809Z,102066.14
2019-05-22T12:47:33.666Z,102071.08
2019-05-22T12:52:35.529Z,102055.33
2019-05-22T12:57:37.380Z,102067.58
2019-05-22T13:02:42.469Z,102072.41
2019-05-22T13:07:42.769Z,102057.51
2019-05-22T13:12:44.276Z,102055.87
2019-05-22T13:17:45.724Z,102059.03
2019-05-22T13:22:47.775Z,102050.02
2019-05-22T13:27:50.489Z,102051.75
2019-05-22T13:32:52.553Z,102050.45
2019-05-22T13:37:54.363Z,102045.50
2019-05-22T13:42:56.938Z,102045.02
2019-05-22T13:47:58.527Z,102043.69
2019-05-22T13:53:01.058Z,102055.43
2019-05-22T13:58:02.592Z,102040.61
2019-05-22T14:03:04.216Z,102058.02
2019-05-22T14:08:05.747Z,102041.33
2019-05-22T14:13:07.947Z,102048.86
2019-05-22T14:18:09.848Z,102050.25
2019-05-22T14:23:11.446Z,102049.96
2019-05-22T14:28:13.021Z,102059.91
2019-05-22T14:33:14.840Z,102055.39
2019-05-22T14:38:17.053Z,102050.77
2019-05-22T14:43:25.414Z,102049.05
2019-05-22T14:48:22.947Z,102048.20
2019-05-22T14:53:24.661Z,102054.26
2019-05-22T14:58:26.241Z,102055.98
2019-05-22T15:03:27.778Z,102054.65
2019-05-22T15:08:29.362Z,102062.09
2019-05-22T15:13:31.091Z,102055.77
2019-05-22T15:18:32.662Z,102055.38
2019-05-22T15:23:34.843Z,102063.41
2019-05-22T15:28:36.316Z,102066.73
2019-05-22T15:33:38.087Z,102057.05
2019-05-22T15:38:40.824Z,102064.52
2019-05-22T15:43:42.375Z,102056.19
2019-05-22T15:48:45.248Z,102061.16
2019-05-22T15:53:46.869Z,102055.17
2019-05-22T15:58:49.590Z,102057.94
2019-05-22T16:03:51.529Z,102057.05
2019-05-22T16:08:53.721Z,102057.57
2019-05-22T16:13:55.742Z,102056.25
2019-05-22T16:19:01.411Z,102059.91
2019-05-22T16:24:03.318Z,102060.38
2019-05-22T16:29:04.945Z,102062.70
2019-05-22T16:34:06.524Z,102064.91
2019-05-22T16:39:08.800Z,102060.50
2019-05-22T16:44:11.000Z,102065.25
2019-05-22T16:49:12.648Z,102064.13
2019-05-22T16:54:14.058Z,102066.11
2019-05-22T16:59:15.811Z,102061.33
2019-05-22T17:04:17.239Z,102064.42
2019-05-22T17:09:18.678Z,102061.09
2019-05-22T17:14:20.277Z,102064.06
2019-05-22T17:19:27.012Z,102064.58
2019-05-22T17:24:24.943Z,102062.53
2019-05-22T17:29:26.416Z,102070.59
2019-05-22T17:34:28.144Z,102069.69
2019-05-22T17:39:30.025Z,102070.14
2019-05-22T17:44:31.830Z,102065.16
2019-05-22T17:49:33.300Z,102068.03
2019-05-22T17:54:34.794Z,102068.94
2019-05-22T17:59:36.134Z,102071.91
2019-05-22T18:04:38.106Z,102068.13
2019-05-22T18:09:39.631Z,102065.34
2019-05-22T18:14:41.612Z,102062.94
2019-05-22T18:19:43.699Z,102065.95
2019-05-22T18:24:45.258Z,102067.70
2019-05-22T18:29:47.185Z,102070.09
2019-05-22T18:34:48.846Z,102063.49
2019-05-22T18:39:50.774Z,102060.98
2019-05-22T18:44:52.290Z,102056.34
2019-05-22T18:49:54.094Z,102054.78
2019-05-22T18:54:55.758Z,102059.66
2019-05-22T19:00:02.806Z,102060.28
2019-05-22T19:05:00.850Z,102051.55
2019-05-22T19:10:02.809Z,102063.66
2019-05-22T19:15:04.444Z,102063.23
2019-05-22T19:20:06.153Z,102057.02
2019-05-22T19:25:07.703Z,102066.42
2019-05-22T19:30:09.583Z,102065.62
2019-05-22T19:35:13.544Z,102067.05
2019-05-22T19:40:15.952Z,102066.78
2019-05-22T19:45:18.171Z,102069.34
2019-05-22T19:50:23.701Z,102073.66
2019-05-22T19:55:24.921Z,102073.52
2019-05-22T20:00:27.145Z,102074.45
2019-05-22T20:05:28.791Z,102077.16
2019-05-22T20:10:30.788Z,102086.61
2019-05-22T20:15:32.515Z,102094.25
2019-05-22T20:20:34.135Z,102100.52
2019-05-22T20:25:35.701Z,102103.30
2019-05-22T20:30:37.305Z,102107.67
2019-05-22T20:35:38.828Z,102101.59
2019-05-22T20:40:40.521Z,102103.78
2019-05-22T20:45:42.147Z,102103.59
2019-05-22T20:50:43.710Z,102101.47
2019-05-22T20:55:45.229Z,102101.11
2019-05-22T21:00:47.440Z,102098.98
2019-05-22T21:05:49.280Z,102095.36
2019-05-22T21:10:50.721Z,102088.75
2019-05-22T21:15:53.375Z,102087.11
2019-05-22T21:20:55.776Z,102092.76
2019-05-22T21:25:57.651Z,102092.62
2019-05-22T21:30:59.163Z,102093.87
2019-05-22T21:36:01.132Z,102095.53
2019-05-22T21:41:02.930Z,102092.48
2019-05-22T21:46:04.381Z,102085.71
2019-05-22T21:51:06.709Z,102092.32
2019-05-22T21:56:08.248Z,102091.28
2019-05-22T22:01:09.862Z,102091.17
2019-05-22T22:06:11.761Z,102085.73
2019-05-22T22:11:13.208Z,102083.73
2019-05-22T22:16:14.740Z,102086.94
2019-05-22T22:21:16.269Z,102088.23
2019-05-22T22:26:25.430Z,102085.66
2019-05-22T22:31:21.133Z,102087.31
2019-05-22T22:36:22.639Z,102075.36
2019-05-22T22:41:24.393Z,102075.82
2019-05-22T22:46:28.613Z,102074.30
2019-05-22T22:51:30.173Z,102075.81
2019-05-22T22:56:31.565Z,102071.47
2019-05-22T23:01:33.179Z,102078.05
2019-05-22T23:06:36.233Z,102076.27
2019-05-22T23:11:38.627Z,102078.91
2019-05-22T23:16:40.479Z,102072.30
2019-05-22T23:21:40.988Z,102075.03
2019-05-22T23:26:42.505Z,102073.91
2019-05-22T23:31:44.053Z,102064.72
2019-05-22T23:36:45.576Z,102067.85
2019-05-22T23:41:47.668Z,102060.14
2019-05-22T23:46:49.212Z,102064.92
2019-05-22T23:51:50.704Z,102066.27
2019-05-22T23:56:52.128Z,102063.74
